Terminal Aerodrome Forecast
Issued by NWS

Home | Current Version | Previous Version | Text Only | Print | Product List | Glossary On
Versions: 1 2 3 4 5 6 7 8 9 10 11 12 13 14 15 16 17 18 19 20
000
FTUS46 KSEW 271201 AAA
TAFBFI
TAF AMD
KBFI 271201Z 2712/2812 17006KT P6SM SCT025 BKN050
      TEMPO 2712/2716 BKN025 OVC050
     FM271800 16007KT P6SM -SHRA SCT025 BKN035
     FM272300 31005KT P6SM -SHRA SCT030 OVC040
     FM280400 16004KT P6SM BKN035
     FM280900 VRB03KT P6SM OVC030=

USA.gov is the U.S. government's official web portal to all federal, state and local government web resources and services.